sensor_id;sensor_type;location;lat;lon;timestamp;temperature;humidity
11304;DHT22;5707;49.588;12.148;2023-05-07T00:01:45;10.80;99.90
11304;DHT22;5707;49.588;12.148;2023-05-07T00:04:10;10.70;99.90
11304;DHT22;5707;49.588;12.148;2023-05-07T00:06:36;10.50;99.90
11304;DHT22;5707;49.588;12.148;2023-05-07T00:09:01;10.40;99.90
11304;DHT22;5707;49.588;12.148;2023-05-07T00:11:27;10.30;99.90
11304;DHT22;5707;49.588;12.148;2023-05-07T00:13:53;10.20;99.90
11304;DHT22;5707;49.588;12.148;2023-05-07T00:16:19;10.10;99.90
11304;DHT22;5707;49.588;12.148;2023-05-07T00:18:45;9.90;99.90
11304;DHT22;5707;49.588;12.148;2023-05-07T00:21:11;9.90;99.90
11304;DHT22;5707;49.588;12.148;2023-05-07T00:23:37;9.80;99.90
11304;DHT22;5707;49.588;12.148;2023-05-07T00:26:03;9.70;99.90
11304;DHT22;5707;49.588;12.148;2023-05-07T00:28:29;9.60;99.90
11304;DHT22;5707;49.588;12.148;2023-05-07T00:30:54;9.50;99.90
11304;DHT22;5707;49.588;12.148;2023-05-07T00:33:20;9.40;99.90
11304;DHT22;5707;49.588;12.148;2023-05-07T00:35:46;9.40;99.90
11304;DHT22;5707;49.588;12.148;2023-05-07T00:38:11;9.30;99.90
11304;DHT22;5707;49.588;12.148;2023-05-07T00:40:37;9.30;99.90
11304;DHT22;5707;49.588;12.148;2023-05-07T00:43:03;9.30;99.90
11304;DHT22;5707;49.588;12.148;2023-05-07T00:45:29;9.40;99.90
11304;DHT22;5707;49.588;12.148;2023-05-07T00:47:59;9.40;99.90
11304;DHT22;5707;49.588;12.148;2023-05-07T00:50:26;9.40;99.90
11304;DHT22;5707;49.588;12.148;2023-05-07T00:52:53;9.30;99.90
11304;DHT22;5707;49.588;12.148;2023-05-07T00:55:19;9.30;99.90
11304;DHT22;5707;49.588;12.148;2023-05-07T00:57:45;9.20;99.90
11304;DHT22;5707;49.588;12.148;2023-05-07T01:00:11;9.30;99.90
11304;DHT22;5707;49.588;12.148;2023-05-07T01:02:41;9.30;99.90
11304;DHT22;5707;49.588;12.148;2023-05-07T01:05:09;9.30;99.90
11304;DHT22;5707;49.588;12.148;2023-05-07T01:07:35;9.30;99.90
11304;DHT22;5707;49.588;12.148;2023-05-07T01:10:03;9.30;99.90
11304;DHT22;5707;49.588;12.148;2023-05-07T01:12:29;9.20;99.90
11304;DHT22;5707;49.588;12.148;2023-05-07T01:14:55;9.20;99.90
11304;DHT22;5707;49.588;12.148;2023-05-07T01:17:20;9.20;99.90
11304;DHT22;5707;49.588;12.148;2023-05-07T01:19:46;9.30;99.90
11304;DHT22;5707;49.588;12.148;2023-05-07T01:22:15;9.30;99.90
11304;DHT22;5707;49.588;12.148;2023-05-07T01:24:42;9.30;99.90
11304;DHT22;5707;49.588;12.148;2023-05-07T01:27:07;9.30;99.90
11304;DHT22;5707;49.588;12.148;2023-05-07T01:29:33;9.30;99.90
11304;DHT22;5707;49.588;12.148;2023-05-07T01:32:00;9.30;99.90
11304;DHT22;5707;49.588;12.148;2023-05-07T01:34:32;9.30;99.90
11304;DHT22;5707;49.588;12.148;2023-05-07T01:36:58;9.30;99.90
11304;DHT22;5707;49.588;12.148;2023-05-07T01:39:26;9.20;99.90
11304;DHT22;5707;49.588;12.148;2023-05-07T01:41:55;9.10;99.90
11304;DHT22;5707;49.588;12.148;2023-05-07T01:44:21;9.10;99.90
11304;DHT22;5707;49.588;12.148;2023-05-07T01:46:47;9.00;99.90
11304;DHT22;5707;49.588;12.148;2023-05-07T01:49:13;9.00;99.90
11304;DHT22;5707;49.588;12.148;2023-05-07T01:51:40;9.00;99.90
11304;DHT22;5707;49.588;12.148;2023-05-07T01:54:05;9.10;99.90
11304;DHT22;5707;49.588;12.148;2023-05-07T01:56:31;9.10;99.90
11304;DHT22;5707;49.588;12.148;2023-05-07T01:58:57;9.00;99.90
11304;DHT22;5707;49.588;12.148;2023-05-07T02:01:23;8.90;99.90
11304;DHT22;5707;49.588;12.148;2023-05-07T02:03:48;8.90;99.90
11304;DHT22;5707;49.588;12.148;2023-05-07T02:06:14;8.80;99.90
11304;DHT22;5707;49.588;12.148;2023-05-07T02:08:39;8.70;99.90
11304;DHT22;5707;49.588;12.148;2023-05-07T02:11:05;8.70;99.90
11304;DHT22;5707;49.588;12.148;2023-05-07T02:13:32;8.60;99.90
11304;DHT22;5707;49.588;12.148;2023-05-07T02:15:58;8.40;99.90
11304;DHT22;5707;49.588;12.148;2023-05-07T02:18:24;8.40;99.90
11304;DHT22;5707;49.588;12.148;2023-05-07T02:20:49;8.40;99.90
11304;DHT22;5707;49.588;12.148;2023-05-07T02:23:15;8.30;99.90
11304;DHT22;5707;49.588;12.148;2023-05-07T02:25:40;8.40;99.90
11304;DHT22;5707;49.588;12.148;2023-05-07T02:28:06;8.40;99.90
11304;DHT22;5707;49.588;12.148;2023-05-07T02:30:32;8.40;99.90
11304;DHT22;5707;49.588;12.148;2023-05-07T02:32:58;8.30;99.90
11304;DHT22;5707;49.588;12.148;2023-05-07T02:35:24;8.40;99.90
11304;DHT22;5707;49.588;12.148;2023-05-07T02:37:50;8.40;99.90
11304;DHT22;5707;49.588;12.148;2023-05-07T02:40:16;8.30;99.90
11304;DHT22;5707;49.588;12.148;2023-05-07T02:42:41;8.30;99.90
11304;DHT22;5707;49.588;12.148;2023-05-07T02:45:07;8.30;99.90
11304;DHT22;5707;49.588;12.148;2023-05-07T02:47:33;8.20;99.90
11304;DHT22;5707;49.588;12.148;2023-05-07T02:49:58;8.20;99.90
11304;DHT22;5707;49.588;12.148;2023-05-07T02:52:24;8.30;99.90
11304;DHT22;5707;49.588;12.148;2023-05-07T02:54:50;8.30;99.90
11304;DHT22;5707;49.588;12.148;2023-05-07T02:57:15;8.40;99.90
11304;DHT22;5707;49.588;12.148;2023-05-07T02:59:42;8.40;99.90
11304;DHT22;5707;49.588;12.148;2023-05-07T03:02:07;8.50;99.90
11304;DHT22;5707;49.588;12.148;2023-05-07T03:04:33;8.60;99.90
11304;DHT22;5707;49.588;12.148;2023-05-07T03:06:58;8.70;99.90
11304;DHT22;5707;49.588;12.148;2023-05-07T03:09:24;8.60;99.90
11304;DHT22;5707;49.588;12.148;2023-05-07T03:11:50;8.60;99.90
11304;DHT22;5707;49.588;12.148;2023-05-07T03:14:16;8.70;99.90
11304;DHT22;5707;49.588;12.148;2023-05-07T03:16:42;8.60;99.90
11304;DHT22;5707;49.588;12.148;2023-05-07T03:19:07;8.60;99.90
11304;DHT22;5707;49.588;12.148;2023-05-07T03:21:33;8.50;99.90
11304;DHT22;5707;49.588;12.148;2023-05-07T03:24:00;8.40;99.90
11304;DHT22;5707;49.588;12.148;2023-05-07T03:26:25;8.40;99.90
11304;DHT22;5707;49.588;12.148;2023-05-07T03:28:51;8.30;99.90
11304;DHT22;5707;49.588;12.148;2023-05-07T03:31:17;8.30;99.90
11304;DHT22;5707;49.588;12.148;2023-05-07T03:33:53;8.30;99.90
11304;DHT22;5707;49.588;12.148;2023-05-07T03:36:19;8.30;99.90
11304;DHT22;5707;49.588;12.148;2023-05-07T03:38:45;8.30;99.90
11304;DHT22;5707;49.588;12.148;2023-05-07T03:41:11;8.30;99.90
11304;DHT22;5707;49.588;12.148;2023-05-07T03:43:37;8.20;99.90
11304;DHT22;5707;49.588;12.148;2023-05-07T03:46:03;8.10;99.90
11304;DHT22;5707;49.588;12.148;2023-05-07T03:48:28;8.20;99.90
11304;DHT22;5707;49.588;12.148;2023-05-07T03:50:54;8.30;99.90
11304;DHT22;5707;49.588;12.148;2023-05-07T03:53:19;8.40;99.90
11304;DHT22;5707;49.588;12.148;2023-05-07T03:55:45;8.40;99.90
11304;DHT22;5707;49.588;12.148;2023-05-07T03:58:10;8.40;99.90
11304;DHT22;5707;49.588;12.148;2023-05-07T04:00:36;8.50;99.90
11304;DHT22;5707;49.588;12.148;2023-05-07T04:03:04;8.70;99.90
11304;DHT22;5707;49.588;12.148;2023-05-07T04:05:30;8.80;99.90
11304;DHT22;5707;49.588;12.148;2023-05-07T04:07:58;9.00;99.90
11304;DHT22;5707;49.588;12.148;2023-05-07T04:10:23;9.10;99.90
11304;DHT22;5707;49.588;12.148;2023-05-07T04:12:49;9.30;99.90
11304;DHT22;5707;49.588;12.148;2023-05-07T04:15:15;9.40;99.90
11304;DHT22;5707;49.588;12.148;2023-05-07T04:17:40;9.50;99.90
11304;DHT22;5707;49.588;12.148;2023-05-07T04:20:09;9.70;99.90
11304;DHT22;5707;49.588;12.148;2023-05-07T04:22:36;9.90;99.90
11304;DHT22;5707;49.588;12.148;2023-05-07T04:25:02;10.10;99.90
11304;DHT22;5707;49.588;12.148;2023-05-07T04:27:27;10.40;99.90
11304;DHT22;5707;49.588;12.148;2023-05-07T04:29:53;10.50;99.90
11304;DHT22;5707;49.588;12.148;2023-05-07T04:32:21;10.70;99.90
11304;DHT22;5707;49.588;12.148;2023-05-07T04:34:47;10.80;99.90
11304;DHT22;5707;49.588;12.148;2023-05-07T04:37:13;11.00;99.90
11304;DHT22;5707;49.588;12.148;2023-05-07T04:39:38;11.10;99.90
11304;DHT22;5707;49.588;12.148;2023-05-07T04:42:04;11.10;99.90
11304;DHT22;5707;49.588;12.148;2023-05-07T04:44:29;11.10;99.90
11304;DHT22;5707;49.588;12.148;2023-05-07T04:46:56;11.20;99.90
11304;DHT22;5707;49.588;12.148;2023-05-07T04:49:22;11.20;99.90
11304;DHT22;5707;49.588;12.148;2023-05-07T04:51:47;11.50;99.90
11304;DHT22;5707;49.588;12.148;2023-05-07T04:54:13;11.90;99.90
11304;DHT22;5707;49.588;12.148;2023-05-07T04:56:39;12.40;99.90
11304;DHT22;5707;49.588;12.148;2023-05-07T04:59:04;12.70;99.90
11304;DHT22;5707;49.588;12.148;2023-05-07T05:01:31;13.00;99.90
11304;DHT22;5707;49.588;12.148;2023-05-07T05:03:56;13.20;99.90
11304;DHT22;5707;49.588;12.148;2023-05-07T05:06:22;13.50;99.90
11304;DHT22;5707;49.588;12.148;2023-05-07T05:08:47;13.80;99.90
11304;DHT22;5707;49.588;12.148;2023-05-07T05:11:13;13.90;99.90
11304;DHT22;5707;49.588;12.148;2023-05-07T05:13:39;13.70;99.90
11304;DHT22;5707;49.588;12.148;2023-05-07T05:16:05;13.50;99.90
11304;DHT22;5707;49.588;12.148;2023-05-07T05:18:31;13.40;99.90
11304;DHT22;5707;49.588;12.148;2023-05-07T05:20:56;13.20;99.90
11304;DHT22;5707;49.588;12.148;2023-05-07T05:23:22;13.10;99.90
11304;DHT22;5707;49.588;12.148;2023-05-07T05:25:47;13.00;99.90
11304;DHT22;5707;49.588;12.148;2023-05-07T05:28:13;12.90;99.90
11304;DHT22;5707;49.588;12.148;2023-05-07T05:30:39;13.00;99.90
11304;DHT22;5707;49.588;12.148;2023-05-07T05:33:05;13.10;99.90
11304;DHT22;5707;49.588;12.148;2023-05-07T05:35:30;13.20;99.90
11304;DHT22;5707;49.588;12.148;2023-05-07T05:37:57;13.20;99.90
11304;DHT22;5707;49.588;12.148;2023-05-07T05:40:22;13.30;99.90
11304;DHT22;5707;49.588;12.148;2023-05-07T05:42:48;13.40;99.90
11304;DHT22;5707;49.588;12.148;2023-05-07T05:45:13;13.50;99.90
11304;DHT22;5707;49.588;12.148;2023-05-07T05:47:39;13.60;99.90
11304;DHT22;5707;49.588;12.148;2023-05-07T05:50:06;13.80;99.90
11304;DHT22;5707;49.588;12.148;2023-05-07T05:52:32;13.90;99.90
11304;DHT22;5707;49.588;12.148;2023-05-07T05:54:57;13.90;99.90
11304;DHT22;5707;49.588;12.148;2023-05-07T05:57:23;13.90;99.90
11304;DHT22;5707;49.588;12.148;2023-05-07T05:59:48;13.90;99.90
11304;DHT22;5707;49.588;12.148;2023-05-07T06:02:14;13.90;99.90
11304;DHT22;5707;49.588;12.148;2023-05-07T06:04:39;13.90;99.90
11304;DHT22;5707;49.588;12.148;2023-05-07T06:07:05;13.80;99.90
11304;DHT22;5707;49.588;12.148;2023-05-07T06:09:31;13.90;99.90
11304;DHT22;5707;49.588;12.148;2023-05-07T06:11:56;13.80;99.90
11304;DHT22;5707;49.588;12.148;2023-05-07T06:14:22;13.70;99.90
11304;DHT22;5707;49.588;12.148;2023-05-07T06:16:48;13.70;99.90
11304;DHT22;5707;49.588;12.148;2023-05-07T06:19:13;13.70;99.90
11304;DHT22;5707;49.588;12.148;2023-05-07T06:21:39;13.80;99.90
11304;DHT22;5707;49.588;12.148;2023-05-07T06:24:05;13.80;99.90
11304;DHT22;5707;49.588;12.148;2023-05-07T06:26:31;13.90;99.90
11304;DHT22;5707;49.588;12.148;2023-05-07T06:28:56;13.80;99.90
11304;DHT22;5707;49.588;12.148;2023-05-07T06:31:22;13.80;99.90
11304;DHT22;5707;49.588;12.148;2023-05-07T06:33:49;13.70;99.90
11304;DHT22;5707;49.588;12.148;2023-05-07T06:36:14;13.80;99.90
11304;DHT22;5707;49.588;12.148;2023-05-07T06:38:40;13.80;99.90
11304;DHT22;5707;49.588;12.148;2023-05-07T06:41:06;13.80;99.90
11304;DHT22;5707;49.588;12.148;2023-05-07T06:43:32;13.90;99.90
11304;DHT22;5707;49.588;12.148;2023-05-07T06:45:57;14.00;99.90
11304;DHT22;5707;49.588;12.148;2023-05-07T06:48:23;14.10;99.90
11304;DHT22;5707;49.588;12.148;2023-05-07T06:50:49;14.20;99.90
11304;DHT22;5707;49.588;12.148;2023-05-07T06:53:14;14.20;99.90
11304;DHT22;5707;49.588;12.148;2023-05-07T06:55:40;14.40;99.90
11304;DHT22;5707;49.588;12.148;2023-05-07T06:58:07;14.80;99.90
11304;DHT22;5707;49.588;12.148;2023-05-07T07:00:32;14.80;99.90
11304;DHT22;5707;49.588;12.148;2023-05-07T07:02:58;14.90;99.90
11304;DHT22;5707;49.588;12.148;2023-05-07T07:05:24;15.40;99.90
11304;DHT22;5707;49.588;12.148;2023-05-07T07:07:50;15.70;99.90
11304;DHT22;5707;49.588;12.148;2023-05-07T07:10:23;15.90;99.90
11304;DHT22;5707;49.588;12.148;2023-05-07T07:12:49;16.10;99.90
11304;DHT22;5707;49.588;12.148;2023-05-07T07:15:16;16.50;99.90
11304;DHT22;5707;49.588;12.148;2023-05-07T07:17:41;16.80;99.90
11304;DHT22;5707;49.588;12.148;2023-05-07T07:20:07;17.30;99.90
11304;DHT22;5707;49.588;12.148;2023-05-07T07:22:33;17.30;99.90
11304;DHT22;5707;49.588;12.148;2023-05-07T07:24:58;17.10;99.90
11304;DHT22;5707;49.588;12.148;2023-05-07T07:27:24;17.00;99.90
11304;DHT22;5707;49.588;12.148;2023-05-07T07:29:50;16.90;99.90
11304;DHT22;5707;49.588;12.148;2023-05-07T07:32:16;16.80;99.90
11304;DHT22;5707;49.588;12.148;2023-05-07T07:34:41;16.70;99.90
11304;DHT22;5707;49.588;12.148;2023-05-07T07:37:07;16.60;99.90
11304;DHT22;5707;49.588;12.148;2023-05-07T07:39:33;16.80;99.90
11304;DHT22;5707;49.588;12.148;2023-05-07T07:41:58;16.70;99.90
11304;DHT22;5707;49.588;12.148;2023-05-07T07:44:24;16.60;99.90
11304;DHT22;5707;49.588;12.148;2023-05-07T07:46:50;16.90;99.90
11304;DHT22;5707;49.588;12.148;2023-05-07T07:49:16;16.90;99.90
11304;DHT22;5707;49.588;12.148;2023-05-07T07:51:42;16.90;99.90
11304;DHT22;5707;49.588;12.148;2023-05-07T07:54:07;17.30;99.90
11304;DHT22;5707;49.588;12.148;2023-05-07T07:56:33;17.40;99.90
11304;DHT22;5707;49.588;12.148;2023-05-07T07:58:59;17.60;99.90
11304;DHT22;5707;49.588;12.148;2023-05-07T08:01:25;17.70;99.90
11304;DHT22;5707;49.588;12.148;2023-05-07T08:03:51;17.60;99.90
11304;DHT22;5707;49.588;12.148;2023-05-07T08:06:17;17.30;99.90
11304;DHT22;5707;49.588;12.148;2023-05-07T08:08:42;17.30;99.90
11304;DHT22;5707;49.588;12.148;2023-05-07T08:11:08;17.30;99.90
11304;DHT22;5707;49.588;12.148;2023-05-07T08:13:34;17.10;99.90
11304;DHT22;5707;49.588;12.148;2023-05-07T08:16:00;17.10;99.90
11304;DHT22;5707;49.588;12.148;2023-05-07T08:18:26;17.20;99.90
11304;DHT22;5707;49.588;12.148;2023-05-07T08:20:53;17.30;99.90
11304;DHT22;5707;49.588;12.148;2023-05-07T08:23:19;17.40;99.90
11304;DHT22;5707;49.588;12.148;2023-05-07T08:25:44;17.60;99.90
11304;DHT22;5707;49.588;12.148;2023-05-07T08:28:10;17.80;99.90
11304;DHT22;5707;49.588;12.148;2023-05-07T08:30:36;17.90;99.90
11304;DHT22;5707;49.588;12.148;2023-05-07T08:33:02;18.00;99.90
11304;DHT22;5707;49.588;12.148;2023-05-07T08:35:28;18.40;99.90
11304;DHT22;5707;49.588;12.148;2023-05-07T08:37:53;19.00;99.90
11304;DHT22;5707;49.588;12.148;2023-05-07T08:40:20;19.20;99.90
11304;DHT22;5707;49.588;12.148;2023-05-07T08:42:48;19.40;99.90
11304;DHT22;5707;49.588;12.148;2023-05-07T08:45:15;19.20;99.90
11304;DHT22;5707;49.588;12.148;2023-05-07T08:47:46;19.20;99.90
11304;DHT22;5707;49.588;12.148;2023-05-07T08:50:13;19.10;99.90
11304;DHT22;5707;49.588;12.148;2023-05-07T08:52:42;19.30;99.90
11304;DHT22;5707;49.588;12.148;2023-05-07T08:55:08;19.40;99.90
11304;DHT22;5707;49.588;12.148;2023-05-07T08:57:35;19.30;99.90
11304;DHT22;5707;49.588;12.148;2023-05-07T09:00:01;19.20;99.90
11304;DHT22;5707;49.588;12.148;2023-05-07T09:02:27;19.10;99.90
11304;DHT22;5707;49.588;12.148;2023-05-07T09:04:52;19.00;99.90
11304;DHT22;5707;49.588;12.148;2023-05-07T09:07:19;18.70;99.90
11304;DHT22;5707;49.588;12.148;2023-05-07T09:09:45;18.40;99.90
11304;DHT22;5707;49.588;12.148;2023-05-07T09:12:11;18.30;99.90
11304;DHT22;5707;49.588;12.148;2023-05-07T09:14:37;18.10;99.90
11304;DHT22;5707;49.588;12.148;2023-05-07T09:17:03;18.00;99.90
11304;DHT22;5707;49.588;12.148;2023-05-07T09:19:28;18.20;99.90
11304;DHT22;5707;49.588;12.148;2023-05-07T09:22:05;18.20;99.90
11304;DHT22;5707;49.588;12.148;2023-05-07T09:24:32;18.00;99.90
11304;DHT22;5707;49.588;12.148;2023-05-07T09:27:01;18.10;99.90
11304;DHT22;5707;49.588;12.148;2023-05-07T09:29:27;18.00;99.90
11304;DHT22;5707;49.588;12.148;2023-05-07T09:32:01;18.40;99.90
11304;DHT22;5707;49.588;12.148;2023-05-07T09:34:28;18.80;99.90
11304;DHT22;5707;49.588;12.148;2023-05-07T09:36:54;18.70;99.90
11304;DHT22;5707;49.588;12.148;2023-05-07T09:39:19;18.70;99.90
11304;DHT22;5707;49.588;12.148;2023-05-07T09:41:46;18.70;99.90
11304;DHT22;5707;49.588;12.148;2023-05-07T09:44:13;18.70;99.90
11304;DHT22;5707;49.588;12.148;2023-05-07T09:46:42;18.80;99.90
11304;DHT22;5707;49.588;12.148;2023-05-07T09:49:12;18.80;99.90
11304;DHT22;5707;49.588;12.148;2023-05-07T09:51:49;18.80;99.90
11304;DHT22;5707;49.588;12.148;2023-05-07T09:54:16;18.70;99.90
11304;DHT22;5707;49.588;12.148;2023-05-07T09:56:45;18.60;99.90
11304;DHT22;5707;49.588;12.148;2023-05-07T09:59:14;18.60;99.90
11304;DHT22;5707;49.588;12.148;2023-05-07T10:01:42;18.60;99.90
11304;DHT22;5707;49.588;12.148;2023-05-07T10:04:08;18.40;99.90
11304;DHT22;5707;49.588;12.148;2023-05-07T10:06:35;18.40;99.90
11304;DHT22;5707;49.588;12.148;2023-05-07T10:09:02;18.60;99.90
11304;DHT22;5707;49.588;12.148;2023-05-07T10:11:28;18.50;99.90
11304;DHT22;5707;49.588;12.148;2023-05-07T10:13:53;18.50;99.90
11304;DHT22;5707;49.588;12.148;2023-05-07T10:16:20;18.50;99.90
11304;DHT22;5707;49.588;12.148;2023-05-07T10:18:46;18.80;99.90
11304;DHT22;5707;49.588;12.148;2023-05-07T10:21:17;19.10;99.90
11304;DHT22;5707;49.588;12.148;2023-05-07T10:23:50;19.50;99.90
11304;DHT22;5707;49.588;12.148;2023-05-07T10:26:17;19.60;99.90
11304;DHT22;5707;49.588;12.148;2023-05-07T10:28:46;19.70;99.90
11304;DHT22;5707;49.588;12.148;2023-05-07T10:33:57;20.00;99.90
11304;DHT22;5707;49.588;12.148;2023-05-07T10:36:24;19.80;99.90
11304;DHT22;5707;49.588;12.148;2023-05-07T10:38:50;19.50;99.90
11304;DHT22;5707;49.588;12.148;2023-05-07T10:41:16;19.40;99.90
11304;DHT22;5707;49.588;12.148;2023-05-07T10:43:44;19.60;99.90
11304;DHT22;5707;49.588;12.148;2023-05-07T10:46:19;19.80;99.90
11304;DHT22;5707;49.588;12.148;2023-05-07T10:51:26;20.40;99.90
11304;DHT22;5707;49.588;12.148;2023-05-07T10:56:42;19.80;99.90
11304;DHT22;5707;49.588;12.148;2023-05-07T11:01:59;19.60;99.90
11304;DHT22;5707;49.588;12.148;2023-05-07T11:04:29;19.50;99.90
11304;DHT22;5707;49.588;12.148;2023-05-07T11:15:06;20.10;99.90
11304;DHT22;5707;49.588;12.148;2023-05-07T11:17:33;20.50;99.90
11304;DHT22;5707;49.588;12.148;2023-05-07T11:20:00;21.00;99.90
11304;DHT22;5707;49.588;12.148;2023-05-07T11:25:06;21.90;99.90
11304;DHT22;5707;49.588;12.148;2023-05-07T11:27:32;22.00;99.90
11304;DHT22;5707;49.588;12.148;2023-05-07T11:29:58;22.30;99.90
11304;DHT22;5707;49.588;12.148;2023-05-07T11:32:29;22.60;99.90
11304;DHT22;5707;49.588;12.148;2023-05-07T11:34:55;22.70;99.50
11304;DHT22;5707;49.588;12.148;2023-05-07T11:37:22;22.80;99.50
11304;DHT22;5707;49.588;12.148;2023-05-07T11:39:48;23.20;98.30
11304;DHT22;5707;49.588;12.148;2023-05-07T11:42:33;23.00;97.00
11304;DHT22;5707;49.588;12.148;2023-05-07T11:45:00;23.10;96.60
11304;DHT22;5707;49.588;12.148;2023-05-07T11:47:26;22.90;96.90
11304;DHT22;5707;49.588;12.148;2023-05-07T11:49:53;22.40;96.60
11304;DHT22;5707;49.588;12.148;2023-05-07T11:52:20;22.20;98.70
11304;DHT22;5707;49.588;12.148;2023-05-07T11:54:54;21.80;97.90
11304;DHT22;5707;49.588;12.148;2023-05-07T11:57:24;21.70;99.00
11304;DHT22;5707;49.588;12.148;2023-05-07T11:59:56;21.70;97.90
11304;DHT22;5707;49.588;12.148;2023-05-07T12:02:23;21.60;98.20
11304;DHT22;5707;49.588;12.148;2023-05-07T12:04:50;21.50;99.50
11304;DHT22;5707;49.588;12.148;2023-05-07T12:07:16;21.40;98.30
11304;DHT22;5707;49.588;12.148;2023-05-07T12:09:43;21.10;98.50
11304;DHT22;5707;49.588;12.148;2023-05-07T12:12:08;21.20;98.50
11304;DHT22;5707;49.588;12.148;2023-05-07T12:14:41;21.60;99.40
11304;DHT22;5707;49.588;12.148;2023-05-07T12:17:11;22.20;98.10
11304;DHT22;5707;49.588;12.148;2023-05-07T12:19:38;22.80;96.70
11304;DHT22;5707;49.588;12.148;2023-05-07T12:22:05;23.30;96.10
11304;DHT22;5707;49.588;12.148;2023-05-07T12:24:47;23.40;95.40
11304;DHT22;5707;49.588;12.148;2023-05-07T12:27:17;23.20;94.90
11304;DHT22;5707;49.588;12.148;2023-05-07T12:29:50;22.90;94.80
11304;DHT22;5707;49.588;12.148;2023-05-07T12:32:20;22.80;95.90
11304;DHT22;5707;49.588;12.148;2023-05-07T12:34:49;23.30;94.70
11304;DHT22;5707;49.588;12.148;2023-05-07T12:37:15;23.30;95.00
11304;DHT22;5707;49.588;12.148;2023-05-07T12:39:46;23.60;94.00
11304;DHT22;5707;49.588;12.148;2023-05-07T12:42:15;23.30;94.40
11304;DHT22;5707;49.588;12.148;2023-05-07T12:44:45;23.10;94.40
11304;DHT22;5707;49.588;12.148;2023-05-07T12:47:11;23.10;94.00
11304;DHT22;5707;49.588;12.148;2023-05-07T12:49:38;23.00;95.90
11304;DHT22;5707;49.588;12.148;2023-05-07T12:52:04;23.20;93.10
11304;DHT22;5707;49.588;12.148;2023-05-07T12:54:35;23.10;93.90
11304;DHT22;5707;49.588;12.148;2023-05-07T12:57:05;23.20;93.40
11304;DHT22;5707;49.588;12.148;2023-05-07T12:59:36;23.20;92.80
11304;DHT22;5707;49.588;12.148;2023-05-07T13:02:02;23.10;93.70
11304;DHT22;5707;49.588;12.148;2023-05-07T13:04:28;23.00;92.60
11304;DHT22;5707;49.588;12.148;2023-05-07T13:06:54;22.70;92.80
11304;DHT22;5707;49.588;12.148;2023-05-07T13:09:19;22.60;93.00
11304;DHT22;5707;49.588;12.148;2023-05-07T13:11:45;22.50;93.50
11304;DHT22;5707;49.588;12.148;2023-05-07T13:14:11;22.30;92.30
11304;DHT22;5707;49.588;12.148;2023-05-07T13:16:37;22.20;93.20
11304;DHT22;5707;49.588;12.148;2023-05-07T13:19:02;22.10;92.70
11304;DHT22;5707;49.588;12.148;2023-05-07T13:21:28;22.00;92.90
11304;DHT22;5707;49.588;12.148;2023-05-07T13:23:53;21.80;93.60
11304;DHT22;5707;49.588;12.148;2023-05-07T13:26:19;21.70;93.70
11304;DHT22;5707;49.588;12.148;2023-05-07T13:28:45;21.80;94.30
11304;DHT22;5707;49.588;12.148;2023-05-07T13:31:11;21.90;94.50
11304;DHT22;5707;49.588;12.148;2023-05-07T13:33:37;22.00;92.10
11304;DHT22;5707;49.588;12.148;2023-05-07T13:36:02;22.00;92.10
11304;DHT22;5707;49.588;12.148;2023-05-07T13:38:30;21.90;93.50
11304;DHT22;5707;49.588;12.148;2023-05-07T13:40:56;22.10;94.80
11304;DHT22;5707;49.588;12.148;2023-05-07T13:43:22;22.20;94.90
11304;DHT22;5707;49.588;12.148;2023-05-07T13:45:47;22.40;91.80
11304;DHT22;5707;49.588;12.148;2023-05-07T13:48:13;22.30;93.60
11304;DHT22;5707;49.588;12.148;2023-05-07T13:50:38;22.00;93.30
11304;DHT22;5707;49.588;12.148;2023-05-07T13:53:04;21.80;92.10
11304;DHT22;5707;49.588;12.148;2023-05-07T13:55:30;22.00;93.00
11304;DHT22;5707;49.588;12.148;2023-05-07T13:57:57;22.00;92.30
11304;DHT22;5707;49.588;12.148;2023-05-07T14:00:24;22.00;92.90
11304;DHT22;5707;49.588;12.148;2023-05-07T14:02:50;21.80;93.50
11304;DHT22;5707;49.588;12.148;2023-05-07T14:05:16;21.70;94.90
11304;DHT22;5707;49.588;12.148;2023-05-07T14:07:41;21.70;94.00
11304;DHT22;5707;49.588;12.148;2023-05-07T14:10:07;21.80;94.50
11304;DHT22;5707;49.588;12.148;2023-05-07T14:12:33;21.80;94.20
11304;DHT22;5707;49.588;12.148;2023-05-07T14:14:59;21.80;95.20
11304;DHT22;5707;49.588;12.148;2023-05-07T14:17:24;21.70;93.50
11304;DHT22;5707;49.588;12.148;2023-05-07T14:19:52;21.60;95.60
11304;DHT22;5707;49.588;12.148;2023-05-07T14:22:22;21.50;94.50
11304;DHT22;5707;49.588;12.148;2023-05-07T14:24:48;21.40;94.20
11304;DHT22;5707;49.588;12.148;2023-05-07T14:27:14;21.50;93.90
11304;DHT22;5707;49.588;12.148;2023-05-07T14:29:40;21.60;93.60
11304;DHT22;5707;49.588;12.148;2023-05-07T14:32:06;21.90;93.60
11304;DHT22;5707;49.588;12.148;2023-05-07T14:34:32;21.80;94.30
11304;DHT22;5707;49.588;12.148;2023-05-07T14:36:58;21.90;93.60
11304;DHT22;5707;49.588;12.148;2023-05-07T14:39:23;21.80;93.90
11304;DHT22;5707;49.588;12.148;2023-05-07T14:41:49;21.90;94.40
11304;DHT22;5707;49.588;12.148;2023-05-07T14:44:15;21.90;93.50
11304;DHT22;5707;49.588;12.148;2023-05-07T14:46:40;22.00;93.10
11304;DHT22;5707;49.588;12.148;2023-05-07T14:49:06;22.10;93.50
11304;DHT22;5707;49.588;12.148;2023-05-07T14:51:32;21.70;94.10
11304;DHT22;5707;49.588;12.148;2023-05-07T14:53:58;21.60;95.00
11304;DHT22;5707;49.588;12.148;2023-05-07T14:56:24;21.70;95.20
11304;DHT22;5707;49.588;12.148;2023-05-07T14:58:50;21.70;94.30
11304;DHT22;5707;49.588;12.148;2023-05-07T15:01:15;21.80;95.70
11304;DHT22;5707;49.588;12.148;2023-05-07T15:03:41;21.80;93.80
11304;DHT22;5707;49.588;12.148;2023-05-07T15:06:06;21.80;93.60
11304;DHT22;5707;49.588;12.148;2023-05-07T15:08:32;22.00;94.40
11304;DHT22;5707;49.588;12.148;2023-05-07T15:10:57;22.00;94.60
11304;DHT22;5707;49.588;12.148;2023-05-07T15:13:23;22.00;94.30
11304;DHT22;5707;49.588;12.148;2023-05-07T15:15:49;22.00;93.90
11304;DHT22;5707;49.588;12.148;2023-05-07T15:18:15;21.80;94.70
11304;DHT22;5707;49.588;12.148;2023-05-07T15:20:41;21.50;93.70
11304;DHT22;5707;49.588;12.148;2023-05-07T15:23:08;21.50;94.50
11304;DHT22;5707;49.588;12.148;2023-05-07T15:25:38;21.60;95.40
11304;DHT22;5707;49.588;12.148;2023-05-07T15:28:03;21.70;95.10
11304;DHT22;5707;49.588;12.148;2023-05-07T15:30:29;21.60;94.90
11304;DHT22;5707;49.588;12.148;2023-05-07T15:32:55;21.60;94.60
11304;DHT22;5707;49.588;12.148;2023-05-07T15:35:21;21.60;94.40
11304;DHT22;5707;49.588;12.148;2023-05-07T15:37:48;21.60;94.20
11304;DHT22;5707;49.588;12.148;2023-05-07T15:40:15;22.00;93.70
11304;DHT22;5707;49.588;12.148;2023-05-07T15:42:41;22.80;92.50
11304;DHT22;5707;49.588;12.148;2023-05-07T15:45:07;23.10;91.90
11304;DHT22;5707;49.588;12.148;2023-05-07T15:47:34;23.00;91.40
11304;DHT22;5707;49.588;12.148;2023-05-07T15:50:00;23.00;90.80
11304;DHT22;5707;49.588;12.148;2023-05-07T15:52:26;22.80;91.40